createdAt,value
2022-07-27T00:01:32.315Z,1.60
2022-07-27T00:04:01.956Z,1.70
2022-07-27T00:06:30.587Z,1.47
2022-07-27T00:08:58.730Z,1.17
2022-07-27T00:11:27.445Z,1.57
2022-07-27T00:13:55.537Z,1.50
2022-07-27T00:16:23.720Z,1.40
2022-07-27T00:18:51.910Z,1.30
2022-07-27T00:21:21.410Z,1.60
2022-07-27T00:23:49.469Z,1.40
2022-07-27T00:26:17.840Z,1.60
2022-07-27T00:28:45.917Z,1.80
2022-07-27T00:31:14.624Z,1.50
2022-07-27T00:33:42.791Z,1.63
2022-07-27T00:36:11.438Z,1.80
2022-07-27T00:38:40.949Z,1.50
2022-07-27T00:41:12.316Z,1.70
2022-07-27T00:43:55.370Z,1.90
2022-07-27T00:46:24.417Z,1.67
2022-07-27T00:48:53.501Z,1.40
2022-07-27T00:51:23.249Z,1.80
2022-07-27T00:53:54.131Z,1.60
2022-07-27T00:56:23.653Z,1.60
2022-07-27T00:58:54.281Z,1.40
2022-07-27T01:01:22.478Z,1.67
2022-07-27T01:03:50.771Z,1.50
2022-07-27T01:06:26.765Z,1.50
2022-07-27T01:09:13.349Z,1.67
2022-07-27T01:11:42.177Z,2.13
2022-07-27T01:14:13.112Z,1.63
2022-07-27T01:16:41.771Z,1.60
2022-07-27T01:19:11.893Z,1.90
2022-07-27T01:21:41.857Z,1.67
2022-07-27T01:24:10.699Z,1.97
2022-07-27T01:26:40.570Z,1.70
2022-07-27T01:29:09.319Z,1.60
2022-07-27T01:31:37.733Z,1.87
2022-07-27T01:34:06.861Z,1.60
2022-07-27T01:36:35.184Z,1.57
2022-07-27T01:39:05.181Z,1.70
2022-07-27T01:41:33.564Z,2.00
2022-07-27T01:44:01.789Z,2.07
2022-07-27T01:46:30.142Z,1.70
2022-07-27T01:48:58.480Z,1.90
2022-07-27T01:51:26.776Z,1.70
2022-07-27T01:53:55.052Z,1.70
2022-07-27T01:56:24.930Z,1.80
2022-07-27T01:58:53.202Z,1.90
2022-07-27T02:01:21.494Z,1.80
2022-07-27T02:03:49.860Z,1.80
2022-07-27T02:06:18.250Z,1.77
2022-07-27T02:08:46.497Z,1.60
2022-07-27T02:11:32.299Z,2.00
2022-07-27T02:14:02.012Z,2.20
2022-07-27T02:16:30.440Z,1.70
2022-07-27T02:18:59.311Z,1.80
2022-07-27T02:21:33.087Z,2.00
2022-07-27T02:24:01.373Z,1.73
2022-07-27T02:26:29.620Z,2.20
2022-07-27T02:28:57.878Z,2.10
2022-07-27T02:31:32.699Z,1.77
2022-07-27T02:34:01.632Z,1.90
2022-07-27T02:36:30.117Z,1.90
2022-07-27T02:38:58.679Z,2.10
2022-07-27T02:41:27.024Z,2.00
2022-07-27T02:43:55.215Z,2.10
2022-07-27T02:46:23.510Z,1.90
2022-07-27T02:48:53.237Z,1.80
2022-07-27T02:51:21.600Z,1.80
2022-07-27T02:53:50.226Z,1.80
2022-07-27T02:56:20.596Z,1.80
2022-07-27T02:58:56.831Z,2.07
2022-07-27T03:01:25.829Z,1.90
2022-07-27T03:03:55.453Z,2.03
2022-07-27T03:06:23.755Z,2.07
2022-07-27T03:08:52.022Z,2.10
2022-07-27T03:11:20.590Z,1.97
2022-07-27T03:13:49.050Z,2.03
2022-07-27T03:16:17.359Z,2.27
2022-07-27T03:18:45.938Z,2.20
2022-07-27T03:21:15.810Z,2.17
2022-07-27T03:23:44.955Z,2.40
2022-07-27T03:26:13.121Z,2.17
2022-07-27T03:28:41.361Z,2.33
2022-07-27T03:31:09.652Z,2.30
2022-07-27T03:33:38.326Z,2.20
2022-07-27T03:36:08.317Z,2.10
2022-07-27T03:38:37.915Z,1.90
2022-07-27T03:41:06.917Z,2.10
2022-07-27T03:43:36.230Z,2.10
2022-07-27T03:46:04.343Z,2.50
2022-07-27T03:48:32.704Z,2.50
2022-07-27T03:51:01.117Z,2.20
2022-07-27T03:53:29.634Z,2.47
2022-07-27T03:55:59.341Z,2.27
2022-07-27T03:58:27.581Z,2.43
2022-07-27T04:00:55.990Z,2.50
2022-07-27T04:03:24.291Z,2.70
2022-07-27T04:05:52.667Z,2.60
2022-07-27T04:08:21.313Z,2.43
2022-07-27T04:10:49.699Z,2.37
2022-07-27T04:13:21.655Z,2.40
2022-07-27T04:15:50.206Z,2.57
2022-07-27T04:18:18.453Z,2.37
2022-07-27T04:20:47.669Z,2.37
2022-07-27T04:23:15.961Z,2.27
2022-07-27T04:25:44.191Z,2.27
2022-07-27T04:28:12.898Z,2.30
2022-07-27T04:30:42.562Z,2.57
2022-07-27T04:33:11.049Z,2.60
2022-07-27T04:35:39.284Z,2.53
2022-07-27T04:38:07.638Z,2.30
2022-07-27T04:40:36.977Z,2.30
2022-07-27T04:43:07.590Z,2.33
2022-07-27T04:45:36.062Z,1.93
2022-07-27T04:48:08.611Z,2.30
2022-07-27T04:50:41.757Z,2.50
2022-07-27T04:53:10.505Z,2.47
2022-07-27T04:55:39.260Z,2.47
2022-07-27T04:58:07.556Z,2.43
2022-07-27T05:00:35.894Z,2.20
2022-07-27T05:03:04.374Z,2.40
2022-07-27T05:05:34.082Z,2.47
2022-07-27T05:08:03.458Z,2.20
2022-07-27T05:10:31.831Z,2.50
2022-07-27T05:13:00.183Z,2.17
2022-07-27T05:15:54.830Z,2.70
2022-07-27T05:18:20.429Z,2.40
2022-07-27T05:20:51.501Z,2.30
2022-07-27T05:23:19.914Z,2.40
2022-07-27T05:25:48.296Z,2.57
2022-07-27T05:28:16.684Z,2.60
2022-07-27T05:30:44.894Z,2.73
2022-07-27T05:33:13.224Z,2.60
2022-07-27T05:35:41.520Z,2.53
2022-07-27T05:38:11.127Z,2.53
2022-07-27T05:40:39.415Z,2.40
2022-07-27T05:43:07.733Z,2.70
2022-07-27T05:45:36.041Z,2.40
2022-07-27T05:48:04.655Z,2.17
2022-07-27T05:50:32.919Z,2.47
2022-07-27T05:53:01.365Z,2.20
2022-07-27T05:55:31.112Z,2.20
2022-07-27T05:57:59.556Z,2.70
2022-07-27T06:00:27.921Z,2.40
2022-07-27T06:02:56.200Z,2.77
2022-07-27T06:05:24.567Z,2.30
2022-07-27T06:08:01.435Z,2.43
2022-07-27T06:10:34.009Z,2.57
2022-07-27T06:13:03.749Z,2.40
2022-07-27T06:15:32.183Z,2.30
2022-07-27T06:18:00.516Z,2.23
2022-07-27T06:20:28.970Z,2.20
2022-07-27T06:23:00.142Z,2.03
2022-07-27T06:25:35.689Z,2.53
2022-07-27T06:28:04.993Z,2.53
2022-07-27T06:30:34.209Z,2.17
2022-07-27T06:33:04.842Z,2.27
2022-07-27T06:35:34.694Z,2.63
2022-07-27T06:38:06.179Z,2.40
2022-07-27T06:40:35.991Z,2.40
2022-07-27T06:43:04.953Z,2.60
2022-07-27T06:45:33.264Z,2.80
2022-07-27T06:48:01.488Z,2.80
2022-07-27T06:50:29.816Z,2.33
2022-07-27T06:52:58.346Z,2.40
2022-07-27T06:55:26.707Z,2.73
2022-07-27T06:57:56.367Z,2.73
2022-07-27T07:00:25.037Z,2.40
2022-07-27T07:02:55.954Z,2.50
2022-07-27T07:05:24.469Z,2.83
2022-07-27T07:07:54.290Z,2.67
2022-07-27T07:10:24.203Z,3.27
2022-07-27T07:12:55.897Z,2.53
2022-07-27T07:15:27.272Z,2.97
2022-07-27T07:17:55.618Z,2.70
2022-07-27T07:20:24.745Z,2.87
2022-07-27T07:22:53.270Z,3.10
2022-07-27T07:25:21.995Z,2.73
2022-07-27T07:27:51.075Z,3.00
2022-07-27T07:30:19.618Z,2.87
2022-07-27T07:32:49.898Z,3.10
2022-07-27T07:35:18.764Z,3.10
2022-07-27T07:37:50.097Z,2.80
2022-07-27T07:43:08.344Z,3.00
2022-07-27T07:45:50.881Z,3.00
2022-07-27T07:48:22.505Z,2.97
2022-07-27T07:50:53.138Z,2.80
2022-07-27T07:53:23.366Z,2.70
2022-07-27T07:55:52.622Z,2.97
2022-07-27T07:58:21.588Z,2.90
2022-07-27T08:00:50.790Z,3.07
2022-07-27T08:03:20.975Z,3.27
2022-07-27T08:05:49.485Z,2.93
2022-07-27T08:08:18.886Z,2.83
2022-07-27T08:10:47.826Z,3.20
2022-07-27T08:13:21.471Z,3.30
2022-07-27T08:15:51.529Z,3.03
2022-07-27T08:18:21.776Z,2.43
2022-07-27T08:20:50.466Z,3.10
2022-07-27T08:23:18.794Z,3.10
2022-07-27T08:25:47.326Z,3.00
2022-07-27T08:28:15.613Z,3.27
2022-07-27T08:30:44.528Z,3.13
2022-07-27T08:33:13.253Z,3.00
2022-07-27T08:35:43.153Z,2.50
2022-07-27T08:38:13.991Z,3.00
2022-07-27T08:40:45.846Z,3.20
2022-07-27T08:43:23.639Z,3.10
2022-07-27T08:45:58.479Z,2.63
2022-07-27T08:48:28.507Z,2.63
2022-07-27T08:50:58.262Z,3.20
2022-07-27T08:53:34.234Z,2.67
2022-07-27T08:56:17.185Z,3.00
2022-07-27T08:58:46.431Z,2.70
2022-07-27T09:01:14.909Z,3.00
2022-07-27T09:03:43.385Z,3.30
2022-07-27T09:06:13.227Z,3.20
2022-07-27T09:08:41.957Z,2.80
2022-07-27T09:11:16.362Z,2.70
2022-07-27T09:13:44.917Z,2.90
2022-07-27T09:16:18.187Z,2.93
2022-07-27T09:18:48.119Z,3.20
2022-07-27T09:21:20.948Z,2.60
2022-07-27T09:23:52.080Z,2.73
2022-07-27T09:26:32.939Z,2.60
2022-07-27T09:29:07.150Z,2.67
2022-07-27T09:31:43.734Z,2.67
2022-07-27T09:34:13.270Z,3.10
2022-07-27T09:36:54.902Z,2.70
2022-07-27T09:39:26.843Z,2.70
2022-07-27T09:41:58.026Z,2.70
2022-07-27T09:44:43.371Z,2.80
2022-07-27T09:47:29.378Z,2.77
2022-07-27T09:49:59.546Z,2.23
2022-07-27T09:52:32.277Z,2.40
2022-07-27T09:55:06.458Z,2.53
2022-07-27T09:57:53.278Z,2.57
2022-07-27T10:00:22.554Z,2.30
2022-07-27T10:02:51.329Z,2.57
2022-07-27T10:05:21.697Z,2.53
2022-07-27T10:07:53.244Z,2.50
2022-07-27T10:10:23.110Z,2.40
2022-07-27T10:12:54.979Z,2.50
2022-07-27T10:15:24.476Z,2.33
2022-07-27T10:18:02.050Z,2.70
2022-07-27T10:20:34.371Z,2.50
2022-07-27T10:23:04.241Z,2.30
2022-07-27T10:25:37.904Z,2.30
2022-07-27T10:28:13.373Z,2.30
2022-07-27T10:30:41.806Z,1.93
2022-07-27T10:33:33.950Z,2.43
2022-07-27T10:36:04.173Z,2.03
2022-07-27T10:38:48.568Z,2.57
2022-07-27T10:41:25.061Z,2.40
2022-07-27T10:44:29.707Z,2.57
2022-07-27T10:47:01.138Z,2.10
2022-07-27T10:49:32.845Z,2.43
2022-07-27T10:52:13.915Z,2.50
2022-07-27T10:54:46.802Z,3.03
2022-07-27T10:57:27.972Z,2.20
2022-07-27T11:00:17.690Z,2.20
2022-07-27T11:02:45.618Z,2.00
2022-07-27T11:08:35.267Z,2.00
2022-07-27T11:10:56.942Z,2.00
2022-07-27T11:13:35.297Z,2.00
2022-07-27T11:16:24.283Z,1.80
2022-07-27T11:19:04.113Z,1.50
2022-07-27T11:21:35.619Z,1.70
2022-07-27T11:24:12.242Z,1.60
2022-07-27T11:26:45.092Z,1.50
2022-07-27T11:29:16.027Z,1.83
2022-07-27T11:31:56.608Z,1.70
2022-07-27T11:34:52.701Z,1.73
2022-07-27T11:37:24.081Z,1.63
2022-07-27T11:40:13.909Z,1.83
2022-07-27T11:42:43.828Z,1.70
2022-07-27T11:45:12.418Z,1.57
2022-07-27T11:47:40.634Z,2.10
2022-07-27T11:50:12.110Z,1.77
2022-07-27T11:52:40.508Z,1.93
2022-07-27T11:55:09.332Z,1.40
2022-07-27T11:57:43.187Z,1.50
2022-07-27T12:00:13.570Z,1.73
2022-07-27T12:02:50.607Z,1.70
2022-07-27T12:05:19.117Z,1.40
2022-07-27T12:07:47.501Z,1.87
2022-07-27T12:10:16.472Z,1.70
2022-07-27T12:12:50.590Z,1.80
2022-07-27T12:15:44.437Z,1.60
2022-07-27T12:18:09.616Z,1.47
2022-07-27T12:20:38.125Z,1.67
2022-07-27T12:23:08.951Z,1.50
2022-07-27T12:25:39.013Z,1.63
2022-07-27T12:28:12.504Z,1.83
2022-07-27T12:30:44.744Z,2.03
2022-07-27T12:33:28.725Z,1.77
2022-07-27T12:35:57.945Z,1.83
2022-07-27T12:38:37.149Z,1.90
2022-07-27T12:41:05.674Z,1.60
2022-07-27T12:43:35.287Z,1.70
2022-07-27T12:46:15.533Z,2.00
2022-07-27T12:48:44.681Z,1.73
2022-07-27T12:51:13.134Z,1.80
2022-07-27T12:53:41.511Z,2.00
2022-07-27T12:56:11.301Z,1.80
2022-07-27T12:58:41.295Z,1.60
2022-07-27T13:01:09.685Z,1.80
2022-07-27T13:03:37.988Z,2.10
2022-07-27T13:06:12.461Z,1.73
2022-07-27T13:08:41.424Z,1.97
2022-07-27T13:11:09.848Z,2.20
2022-07-27T13:13:38.198Z,1.70
2022-07-27T13:16:07.982Z,1.80
2022-07-27T13:18:36.214Z,1.70
2022-07-27T13:21:05.312Z,1.90
2022-07-27T13:23:33.748Z,1.67
2022-07-27T13:26:02.107Z,1.70
2022-07-27T13:28:30.369Z,1.33
2022-07-27T13:30:58.673Z,1.60
2022-07-27T13:33:29.513Z,1.53
2022-07-27T13:36:00.236Z,1.50
2022-07-27T13:38:29.516Z,1.90
2022-07-27T13:40:57.797Z,1.80
2022-07-27T13:43:26.015Z,1.50
2022-07-27T13:45:54.287Z,1.67
2022-07-27T13:48:22.682Z,1.80
2022-07-27T13:50:52.437Z,1.67
2022-07-27T13:53:20.733Z,2.37
2022-07-27T13:55:49.048Z,1.90
2022-07-27T13:58:17.311Z,1.67
2022-07-27T14:00:45.835Z,1.50
2022-07-27T14:03:14.153Z,2.07
2022-07-27T14:05:49.129Z,1.30
2022-07-27T14:08:21.840Z,1.37
2022-07-27T14:10:51.316Z,1.57
2022-07-27T14:13:21.582Z,1.43
2022-07-27T14:15:54.180Z,1.57
2022-07-27T14:18:26.450Z,1.67
2022-07-27T14:20:55.730Z,1.80
2022-07-27T14:23:26.133Z,1.77
2022-07-27T14:25:55.687Z,1.80
2022-07-27T14:28:25.224Z,1.70
2022-07-27T14:30:55.533Z,1.60
2022-07-27T14:33:24.818Z,1.53
2022-07-27T14:35:53.244Z,1.40
2022-07-27T14:38:26.957Z,1.70
2022-07-27T14:41:01.613Z,1.80
2022-07-27T14:43:30.672Z,1.47
2022-07-27T14:45:59.802Z,1.53
2022-07-27T14:48:48.895Z,1.67
2022-07-27T14:51:17.226Z,1.60
2022-07-27T14:53:45.509Z,1.53
2022-07-27T14:56:15.208Z,1.50
2022-07-27T14:58:44.261Z,1.33
2022-07-27T15:01:12.949Z,1.70
2022-07-27T15:03:41.247Z,1.83
2022-07-27T15:06:09.744Z,1.70
2022-07-27T15:08:37.957Z,1.83
2022-07-27T15:11:06.291Z,1.60
2022-07-27T15:13:35.880Z,1.40
2022-07-27T15:16:04.278Z,1.60
2022-07-27T15:18:38.314Z,1.50
2022-07-27T15:21:13.644Z,1.70
2022-07-27T15:23:44.280Z,1.80
2022-07-27T15:26:13.068Z,1.80
2022-07-27T15:28:43.702Z,1.40
2022-07-27T15:31:13.317Z,1.80
2022-07-27T15:33:42.124Z,1.53
2022-07-27T15:36:11.615Z,1.90
2022-07-27T15:39:00.091Z,1.60
2022-07-27T15:41:28.338Z,1.47
2022-07-27T15:43:58.385Z,1.73
2022-07-27T15:46:27.782Z,1.47
2022-07-27T15:48:56.537Z,1.70
2022-07-27T15:51:24.872Z,1.70
2022-07-27T15:53:54.298Z,1.57
2022-07-27T15:56:22.519Z,1.50
2022-07-27T15:58:52.551Z,1.63
2022-07-27T16:01:22.458Z,1.07
2022-07-27T16:04:05.130Z,1.20
2022-07-27T16:06:38.401Z,1.50
2022-07-27T16:09:09.384Z,1.30
2022-07-27T16:11:38.393Z,1.70
2022-07-27T16:14:06.618Z,1.40
2022-07-27T16:16:36.303Z,1.40
2022-07-27T16:19:12.933Z,1.30
2022-07-27T16:21:54.616Z,1.50
2022-07-27T16:24:25.573Z,1.50
2022-07-27T16:26:54.088Z,1.50
2022-07-27T16:29:23.028Z,1.40
2022-07-27T16:31:57.862Z,1.40
2022-07-27T16:34:27.012Z,1.67
2022-07-27T16:36:55.781Z,1.50
2022-07-27T16:39:24.451Z,1.60
2022-07-27T16:41:52.778Z,1.60
2022-07-27T16:44:22.108Z,1.60
2022-07-27T16:46:52.331Z,1.43
2022-07-27T16:49:20.595Z,1.20
2022-07-27T16:51:48.960Z,1.33
2022-07-27T16:54:17.061Z,1.37
2022-07-27T16:56:45.326Z,1.00
2022-07-27T16:59:13.717Z,1.27
2022-07-27T17:01:41.999Z,1.30
2022-07-27T17:04:11.523Z,1.33
2022-07-27T17:06:39.623Z,1.47
2022-07-27T17:09:07.811Z,1.53
2022-07-27T17:11:37.422Z,1.27
2022-07-27T17:14:07.187Z,1.10
2022-07-27T17:16:36.278Z,1.47
2022-07-27T17:19:04.567Z,1.43
2022-07-27T17:21:34.078Z,1.23
2022-07-27T17:24:02.210Z,1.60
2022-07-27T17:26:30.234Z,1.40
2022-07-27T17:28:58.406Z,1.50
2022-07-27T17:31:26.743Z,1.50
2022-07-27T17:33:55.140Z,1.60
2022-07-27T17:36:23.523Z,1.33
2022-07-27T17:38:53.115Z,1.20
2022-07-27T17:41:24.903Z,1.20
2022-07-27T17:43:54.400Z,1.43
2022-07-27T17:46:24.448Z,1.30
2022-07-27T17:48:53.873Z,1.23
2022-07-27T17:51:23.184Z,1.13
2022-07-27T17:53:53.160Z,1.33
2022-07-27T17:56:21.410Z,1.30
2022-07-27T17:58:49.482Z,1.20
2022-07-27T18:04:10.098Z,1.37
2022-07-27T18:06:38.448Z,1.30
2022-07-27T18:09:08.693Z,1.20
2022-07-27T18:11:37.020Z,1.27
2022-07-27T18:14:05.165Z,1.00
2022-07-27T18:16:39.753Z,1.03
2022-07-27T18:19:08.511Z,1.47
2022-07-27T18:21:37.700Z,1.40
2022-07-27T18:24:10.165Z,1.60
2022-07-27T18:26:39.032Z,1.10
2022-07-27T18:29:07.379Z,1.53
2022-07-27T18:31:35.791Z,1.33
2022-07-27T18:34:07.988Z,1.30
2022-07-27T18:36:38.829Z,1.70
2022-07-27T18:39:08.840Z,1.53
2022-07-27T18:41:40.429Z,1.20
2022-07-27T18:44:08.513Z,1.60
2022-07-27T18:46:36.600Z,1.20
2022-07-27T18:49:04.917Z,1.30
2022-07-27T18:51:33.107Z,1.43
2022-07-27T18:54:01.468Z,1.30
2022-07-27T18:56:30.888Z,1.60
2022-07-27T18:58:58.987Z,1.43
2022-07-27T19:01:27.319Z,1.80
2022-07-27T19:03:55.422Z,1.87
2022-07-27T19:06:23.536Z,1.63
2022-07-27T19:08:52.620Z,1.60
2022-07-27T19:11:20.941Z,1.43
2022-07-27T19:13:50.759Z,1.20
2022-07-27T19:16:18.805Z,1.80
2022-07-27T19:18:46.861Z,1.33
2022-07-27T19:21:15.820Z,1.47
2022-07-27T19:23:44.035Z,1.30
2022-07-27T19:26:12.304Z,1.57
2022-07-27T19:28:41.451Z,1.30
2022-07-27T19:31:22.275Z,1.20
2022-07-27T19:33:52.041Z,1.03
2022-07-27T19:36:20.173Z,1.70
2022-07-27T19:38:48.267Z,1.33
2022-07-27T19:41:16.534Z,1.20
2022-07-27T19:43:45.012Z,1.50
2022-07-27T19:46:14.674Z,1.40
2022-07-27T19:48:42.803Z,1.20
2022-07-27T19:51:11.711Z,1.50
2022-07-27T19:53:41.085Z,1.80
2022-07-27T19:56:12.328Z,1.40
2022-07-27T19:58:40.396Z,1.23
2022-07-27T20:01:09.383Z,1.30
2022-07-27T20:03:52.256Z,1.23
2022-07-27T20:06:23.553Z,1.33
2022-07-27T20:08:55.619Z,1.40
2022-07-27T20:11:23.797Z,1.40
2022-07-27T20:13:51.952Z,1.53
2022-07-27T20:16:20.277Z,1.47
2022-07-27T20:18:49.970Z,1.30
2022-07-27T20:21:22.952Z,1.50
2022-07-27T20:23:52.237Z,1.00
2022-07-27T20:26:20.889Z,1.07
2022-07-27T20:28:51.617Z,1.30
2022-07-27T20:31:20.087Z,1.17
2022-07-27T20:33:49.558Z,1.43
2022-07-27T20:36:17.607Z,1.30
2022-07-27T20:38:45.619Z,1.20
2022-07-27T20:41:13.683Z,1.27
2022-07-27T20:43:41.811Z,1.30
2022-07-27T20:46:09.996Z,1.37
2022-07-27T20:48:39.496Z,1.40
2022-07-27T20:51:09.087Z,1.43
2022-07-27T20:53:37.161Z,1.40
2022-07-27T20:56:06.124Z,1.00
2022-07-27T20:58:34.681Z,1.27
2022-07-27T21:01:02.919Z,1.30
2022-07-27T21:03:32.160Z,1.27
2022-07-27T21:06:00.257Z,1.40
2022-07-27T21:08:29.759Z,1.57
2022-07-27T21:10:57.957Z,1.47
2022-07-27T21:13:26.035Z,1.50
2022-07-27T21:15:54.348Z,1.20
2022-07-27T21:18:22.411Z,1.27
2022-07-27T21:20:50.477Z,1.30
2022-07-27T21:23:36.376Z,1.10
2022-07-27T21:26:05.834Z,1.20
2022-07-27T21:28:35.702Z,1.40
2022-07-27T21:31:04.464Z,1.37
2022-07-27T21:33:37.545Z,1.70
2022-07-27T21:36:08.388Z,1.70
2022-07-27T21:38:36.538Z,1.10
2022-07-27T21:41:06.726Z,1.23
2022-07-27T21:43:35.175Z,1.20
2022-07-27T21:46:03.296Z,1.13
2022-07-27T21:48:31.488Z,1.20
2022-07-27T21:50:59.882Z,1.23
2022-07-27T21:53:28.105Z,1.27
2022-07-27T21:55:56.169Z,1.23
2022-07-27T21:58:26.699Z,0.80
2022-07-27T22:00:54.974Z,1.23
2022-07-27T22:03:24.111Z,1.30
2022-07-27T22:05:52.180Z,1.30
2022-07-27T22:08:22.439Z,1.10
2022-07-27T22:10:50.520Z,1.13
2022-07-27T22:13:18.575Z,1.20
2022-07-27T22:15:49.518Z,1.40
2022-07-27T22:18:18.121Z,1.30
2022-07-27T22:20:46.165Z,1.37
2022-07-27T22:23:14.530Z,1.00
2022-07-27T22:25:43.063Z,1.20
2022-07-27T22:28:11.178Z,1.40
2022-07-27T22:30:40.113Z,0.90
2022-07-27T22:33:09.590Z,1.37
2022-07-27T22:35:37.653Z,1.50
2022-07-27T22:38:05.822Z,1.10
2022-07-27T22:40:34.016Z,1.17
2022-07-27T22:43:26.578Z,1.57
2022-07-27T22:45:54.828Z,1.30
2022-07-27T22:48:24.274Z,1.13
2022-07-27T22:50:54.740Z,1.13
2022-07-27T22:53:22.877Z,1.20
2022-07-27T22:55:51.198Z,1.40
2022-07-27T22:58:21.841Z,0.80
2022-07-27T23:00:49.993Z,1.07
2022-07-27T23:03:18.607Z,1.00
2022-07-27T23:05:48.004Z,1.00
2022-07-27T23:08:16.158Z,1.20
2022-07-27T23:10:47.159Z,1.20
2022-07-27T23:13:17.303Z,1.07
2022-07-27T23:15:46.746Z,1.17
2022-07-27T23:18:16.573Z,1.60
2022-07-27T23:20:45.864Z,1.17
2022-07-27T23:23:16.730Z,1.10
2022-07-27T23:25:45.323Z,1.30
2022-07-27T23:28:15.656Z,1.30
2022-07-27T23:30:44.218Z,1.10
2022-07-27T23:33:12.413Z,1.30
2022-07-27T23:35:40.506Z,1.40
2022-07-27T23:38:08.567Z,1.50
2022-07-27T23:40:37.985Z,1.20
2022-07-27T23:43:06.097Z,1.27
2022-07-27T23:45:34.993Z,1.13
2022-07-27T23:48:04.104Z,1.20
2022-07-27T23:50:32.183Z,1.30
2022-07-27T23:53:00.272Z,1.40
2022-07-27T23:55:29.069Z,1.23
2022-07-27T23:57:58.556Z,1.67
